sensor_id;sensor_type;location;lat;lon;timestamp;temperature;humidity
26049;DHT22;13822;51.568;5.086;2022-12-18T00:10:55;-3.10;99.90
26049;DHT22;13822;51.568;5.086;2022-12-18T00:16:26;-3.10;99.90
26049;DHT22;13822;51.568;5.086;2022-12-18T00:22:02;-3.10;99.90
26049;DHT22;13822;51.568;5.086;2022-12-18T00:27:17;-3.10;99.90
26049;DHT22;13822;51.568;5.086;2022-12-18T00:32:33;-3.10;99.90
26049;DHT22;13822;51.568;5.086;2022-12-18T00:38:00;-3.10;99.90
26049;DHT22;13822;51.568;5.086;2022-12-18T00:43:22;-3.20;99.90
26049;DHT22;13822;51.568;5.086;2022-12-18T00:48:39;-3.20;99.90
26049;DHT22;13822;51.568;5.086;2022-12-18T00:53:57;-3.20;99.90
26049;DHT22;13822;51.568;5.086;2022-12-18T00:59:21;-3.20;99.90
26049;DHT22;13822;51.568;5.086;2022-12-18T01:04:26;-3.20;99.90
26049;DHT22;13822;51.568;5.086;2022-12-18T01:09:41;-3.20;99.90
26049;DHT22;13822;51.568;5.086;2022-12-18T01:14:49;-3.30;99.90
26049;DHT22;13822;51.568;5.086;2022-12-18T01:19:56;-3.30;99.90
26049;DHT22;13822;51.568;5.086;2022-12-18T01:25:03;-3.40;99.90
26049;DHT22;13822;51.568;5.086;2022-12-18T01:30:28;-3.50;99.90
26049;DHT22;13822;51.568;5.086;2022-12-18T01:35:40;-3.60;99.90
26049;DHT22;13822;51.568;5.086;2022-12-18T01:40:56;-3.70;99.90
26049;DHT22;13822;51.568;5.086;2022-12-18T01:46:04;-3.80;99.90
26049;DHT22;13822;51.568;5.086;2022-12-18T01:51:14;-3.80;99.90
26049;DHT22;13822;51.568;5.086;2022-12-18T01:56:39;-3.80;99.90
26049;DHT22;13822;51.568;5.086;2022-12-18T02:01:44;-3.70;99.90
26049;DHT22;13822;51.568;5.086;2022-12-18T02:12:15;-3.70;99.90
26049;DHT22;13822;51.568;5.086;2022-12-18T02:17:27;-3.70;99.90
26049;DHT22;13822;51.568;5.086;2022-12-18T02:34:38;-3.80;99.90
26049;DHT22;13822;51.568;5.086;2022-12-18T02:39:48;-3.90;99.90
26049;DHT22;13822;51.568;5.086;2022-12-18T02:45:27;-4.00;99.90
26049;DHT22;13822;51.568;5.086;2022-12-18T02:50:49;-4.10;99.90
26049;DHT22;13822;51.568;5.086;2022-12-18T02:56:22;-4.10;99.90
26049;DHT22;13822;51.568;5.086;2022-12-18T03:07:32;-4.00;99.90
26049;DHT22;13822;51.568;5.086;2022-12-18T03:12:42;-4.00;99.90
26049;DHT22;13822;51.568;5.086;2022-12-18T03:17:55;-3.90;99.90
26049;DHT22;13822;51.568;5.086;2022-12-18T03:23:14;-3.90;99.90
26049;DHT22;13822;51.568;5.086;2022-12-18T03:28:29;-3.90;99.90
26049;DHT22;13822;51.568;5.086;2022-12-18T03:33:47;-3.90;99.90
26049;DHT22;13822;51.568;5.086;2022-12-18T03:39:20;-3.90;99.90
26049;DHT22;13822;51.568;5.086;2022-12-18T03:56:15;-3.90;99.90
26049;DHT22;13822;51.568;5.086;2022-12-18T04:01:25;-3.90;99.90
26049;DHT22;13822;51.568;5.086;2022-12-18T04:06:53;-4.00;99.90
26049;DHT22;13822;51.568;5.086;2022-12-18T04:11:59;-4.10;99.90
26049;DHT22;13822;51.568;5.086;2022-12-18T04:17:11;-4.10;99.90
26049;DHT22;13822;51.568;5.086;2022-12-18T04:22:33;-4.10;99.90
26049;DHT22;13822;51.568;5.086;2022-12-18T04:28:11;-4.20;99.90
26049;DHT22;13822;51.568;5.086;2022-12-18T04:33:43;-4.20;99.90
26049;DHT22;13822;51.568;5.086;2022-12-18T04:38:52;-4.30;99.90
26049;DHT22;13822;51.568;5.086;2022-12-18T04:43:57;-4.30;99.90
26049;DHT22;13822;51.568;5.086;2022-12-18T04:49:13;-4.30;99.90
26049;DHT22;13822;51.568;5.086;2022-12-18T04:54:27;-4.40;99.90
26049;DHT22;13822;51.568;5.086;2022-12-18T04:59:55;-4.40;99.90
26049;DHT22;13822;51.568;5.086;2022-12-18T05:05:09;-4.30;99.90
26049;DHT22;13822;51.568;5.086;2022-12-18T05:10:25;-4.30;99.90
26049;DHT22;13822;51.568;5.086;2022-12-18T05:15:57;-4.30;99.90
26049;DHT22;13822;51.568;5.086;2022-12-18T05:21:26;-4.40;99.90
26049;DHT22;13822;51.568;5.086;2022-12-18T05:26:57;-4.40;99.90
26049;DHT22;13822;51.568;5.086;2022-12-18T05:32:31;-4.30;99.90
26049;DHT22;13822;51.568;5.086;2022-12-18T05:38:00;-4.30;99.90
26049;DHT22;13822;51.568;5.086;2022-12-18T05:43:42;-4.30;99.90
26049;DHT22;13822;51.568;5.086;2022-12-18T05:48:55;-4.40;99.90
26049;DHT22;13822;51.568;5.086;2022-12-18T05:54:26;-4.50;99.90
26049;DHT22;13822;51.568;5.086;2022-12-18T06:40:08;-4.60;99.90
26049;DHT22;13822;51.568;5.086;2022-12-18T06:46:05;-4.60;99.90
26049;DHT22;13822;51.568;5.086;2022-12-18T06:58:30;-4.80;99.90
26049;DHT22;13822;51.568;5.086;2022-12-18T07:03:32;-4.80;99.90
26049;DHT22;13822;51.568;5.086;2022-12-18T07:08:34;-5.00;99.90
26049;DHT22;13822;51.568;5.086;2022-12-18T07:13:36;-5.00;99.90
26049;DHT22;13822;51.568;5.086;2022-12-18T07:18:38;-5.10;99.90
26049;DHT22;13822;51.568;5.086;2022-12-18T07:23:40;-5.20;99.90
26049;DHT22;13822;51.568;5.086;2022-12-18T07:28:42;-5.20;99.90
26049;DHT22;13822;51.568;5.086;2022-12-18T07:33:45;-5.20;99.90
26049;DHT22;13822;51.568;5.086;2022-12-18T07:38:48;-5.30;99.90
26049;DHT22;13822;51.568;5.086;2022-12-18T07:43:50;-5.30;99.90
26049;DHT22;13822;51.568;5.086;2022-12-18T07:48:53;-5.40;99.90
26049;DHT22;13822;51.568;5.086;2022-12-18T07:53:54;-5.30;99.90
26049;DHT22;13822;51.568;5.086;2022-12-18T07:58:58;-5.40;99.90
26049;DHT22;13822;51.568;5.086;2022-12-18T08:04:00;-5.40;99.90
26049;DHT22;13822;51.568;5.086;2022-12-18T08:09:02;-5.40;99.90
26049;DHT22;13822;51.568;5.086;2022-12-18T08:14:04;-5.40;99.90
26049;DHT22;13822;51.568;5.086;2022-12-18T08:19:06;-5.40;99.90
26049;DHT22;13822;51.568;5.086;2022-12-18T08:24:08;-5.30;99.90
26049;DHT22;13822;51.568;5.086;2022-12-18T08:29:10;-5.30;99.90
26049;DHT22;13822;51.568;5.086;2022-12-18T08:34:20;-5.30;99.90
26049;DHT22;13822;51.568;5.086;2022-12-18T08:39:22;-5.20;99.90
26049;DHT22;13822;51.568;5.086;2022-12-18T08:44:24;-5.20;99.90
26049;DHT22;13822;51.568;5.086;2022-12-18T08:49:41;-5.10;99.90
26049;DHT22;13822;51.568;5.086;2022-12-18T08:54:43;-5.00;99.90
26049;DHT22;13822;51.568;5.086;2022-12-18T08:59:45;-5.00;99.90
26049;DHT22;13822;51.568;5.086;2022-12-18T09:04:47;-4.90;99.90
26049;DHT22;13822;51.568;5.086;2022-12-18T09:09:57;-4.80;99.90
26049;DHT22;13822;51.568;5.086;2022-12-18T09:14:59;-4.70;99.90
26049;DHT22;13822;51.568;5.086;2022-12-18T09:20:01;-4.60;99.90
26049;DHT22;13822;51.568;5.086;2022-12-18T09:25:03;-4.60;99.90
26049;DHT22;13822;51.568;5.086;2022-12-18T09:30:05;-4.40;99.90
26049;DHT22;13822;51.568;5.086;2022-12-18T09:35:07;-4.40;99.90
26049;DHT22;13822;51.568;5.086;2022-12-18T09:40:13;-4.20;99.90
26049;DHT22;13822;51.568;5.086;2022-12-18T09:45:16;-4.10;99.90
26049;DHT22;13822;51.568;5.086;2022-12-18T09:50:24;-4.00;99.90
26049;DHT22;13822;51.568;5.086;2022-12-18T09:55:37;-3.90;99.90
26049;DHT22;13822;51.568;5.086;2022-12-18T10:00:44;-3.90;99.90
26049;DHT22;13822;51.568;5.086;2022-12-18T10:10:57;-3.70;99.90
26049;DHT22;13822;51.568;5.086;2022-12-18T10:16:09;-3.60;99.90
26049;DHT22;13822;51.568;5.086;2022-12-18T10:21:15;-3.50;99.90
26049;DHT22;13822;51.568;5.086;2022-12-18T10:26:20;-3.40;99.90
26049;DHT22;13822;51.568;5.086;2022-12-18T10:31:23;-3.30;99.90
26049;DHT22;13822;51.568;5.086;2022-12-18T10:36:26;-3.30;99.90
26049;DHT22;13822;51.568;5.086;2022-12-18T10:41:27;-3.20;99.90
26049;DHT22;13822;51.568;5.086;2022-12-18T10:46:30;-3.10;99.90
26049;DHT22;13822;51.568;5.086;2022-12-18T10:51:33;-3.00;99.90
26049;DHT22;13822;51.568;5.086;2022-12-18T10:56:36;-2.90;99.90
26049;DHT22;13822;51.568;5.086;2022-12-18T11:01:47;-2.80;99.90
26049;DHT22;13822;51.568;5.086;2022-12-18T11:12:13;-2.70;99.90
26049;DHT22;13822;51.568;5.086;2022-12-18T11:17:21;-2.60;99.90
26049;DHT22;13822;51.568;5.086;2022-12-18T11:22:31;-2.60;99.90
26049;DHT22;13822;51.568;5.086;2022-12-18T11:27:35;-2.50;99.90
26049;DHT22;13822;51.568;5.086;2022-12-18T11:32:40;-2.50;99.90
26049;DHT22;13822;51.568;5.086;2022-12-18T11:37:51;-2.40;99.90
26049;DHT22;13822;51.568;5.086;2022-12-18T11:48:44;-2.20;99.90
26049;DHT22;13822;51.568;5.086;2022-12-18T11:54:01;-2.20;99.90
26049;DHT22;13822;51.568;5.086;2022-12-18T12:05:01;-2.00;99.90
26049;DHT22;13822;51.568;5.086;2022-12-18T12:10:23;-1.90;99.90
26049;DHT22;13822;51.568;5.086;2022-12-18T12:15:32;-1.80;99.90
26049;DHT22;13822;51.568;5.086;2022-12-18T12:26:13;-1.70;99.90
26049;DHT22;13822;51.568;5.086;2022-12-18T12:41:54;-1.50;99.90
26049;DHT22;13822;51.568;5.086;2022-12-18T12:47:21;-1.50;99.90
26049;DHT22;13822;51.568;5.086;2022-12-18T12:57:38;-1.40;99.90
26049;DHT22;13822;51.568;5.086;2022-12-18T13:02:44;-1.40;99.90
26049;DHT22;13822;51.568;5.086;2022-12-18T13:07:59;-1.30;99.90
26049;DHT22;13822;51.568;5.086;2022-12-18T13:13:05;-1.30;99.90
26049;DHT22;13822;51.568;5.086;2022-12-18T13:49:43;-1.00;99.90
26049;DHT22;13822;51.568;5.086;2022-12-18T13:54:47;-0.90;99.90
26049;DHT22;13822;51.568;5.086;2022-12-18T13:59:52;-0.90;99.90
26049;DHT22;13822;51.568;5.086;2022-12-18T14:04:54;-0.90;99.90
26049;DHT22;13822;51.568;5.086;2022-12-18T14:09:57;-0.90;99.90
26049;DHT22;13822;51.568;5.086;2022-12-18T14:20:28;-0.80;99.90
26049;DHT22;13822;51.568;5.086;2022-12-18T14:25:32;-0.80;99.90
26049;DHT22;13822;51.568;5.086;2022-12-18T14:30:36;-0.80;99.90
26049;DHT22;13822;51.568;5.086;2022-12-18T14:35:43;-0.80;99.90
26049;DHT22;13822;51.568;5.086;2022-12-18T14:40:53;-0.70;99.90
26049;DHT22;13822;51.568;5.086;2022-12-18T14:45:56;-0.70;99.90
26049;DHT22;13822;51.568;5.086;2022-12-18T14:56:42;-0.70;99.90
26049;DHT22;13822;51.568;5.086;2022-12-18T15:01:37;-0.70;99.90
26049;DHT22;13822;51.568;5.086;2022-12-18T15:17:46;-0.70;99.90
26049;DHT22;13822;51.568;5.086;2022-12-18T15:22:48;-0.60;99.90
26049;DHT22;13822;51.568;5.086;2022-12-18T15:27:50;-0.60;99.90
26049;DHT22;13822;51.568;5.086;2022-12-18T15:32:52;-0.60;99.90
26049;DHT22;13822;51.568;5.086;2022-12-18T15:38:18;-0.60;99.90
26049;DHT22;13822;51.568;5.086;2022-12-18T15:43:21;-0.60;99.90
26049;DHT22;13822;51.568;5.086;2022-12-18T15:48:43;-0.60;99.90
26049;DHT22;13822;51.568;5.086;2022-12-18T15:53:50;-0.60;99.90
26049;DHT22;13822;51.568;5.086;2022-12-18T16:29:40;-0.40;99.90
26049;DHT22;13822;51.568;5.086;2022-12-18T16:41:17;-0.30;99.90
26049;DHT22;13822;51.568;5.086;2022-12-18T16:53:38;-0.20;99.90
